Time;durP1;ratioP1;P1;durP2;ratioP2;P2;SDS_P1;SDS_P2;PMS_P1;PMS_P2;Temp;Humidity;BMP_temperature;BMP_pressure;BME280_temperature;BME280_humidity;BME280_pressure;Samples;Min_cycle;Max_cycle;Signal;HPM_P1;HPM_P2
2023/08/13 00:00:04;;;;;;;0.73;0.73;;;;;19.50;96342.00;;;;5136754;27;20213;-61
2023/08/13 00:02:31;;;;;;;2.63;1.60;;;;;19.60;96344.00;;;;5136103;27;20190;-62
2023/08/13 00:04:59;;;;;;;1.47;1.37;;;;;19.60;96340.00;;;;5136369;27;20193;-62
2023/08/13 00:07:26;;;;;;;1.70;1.60;;;;;19.60;96338.00;;;;5136796;27;20231;-62
2023/08/13 00:09:55;;;;;;;3.23;1.20;;;;;19.60;96337.00;;;;5136440;27;20195;-62
2023/08/13 00:12:22;;;;;;;0.70;0.70;;;;;19.60;96336.00;;;;5137033;27;20653;-62
2023/08/13 00:14:50;;;;;;;1.47;1.40;;;;;19.60;96340.00;;;;5136383;27;20221;-62
2023/08/13 00:17:17;;;;;;;0.97;0.93;;;;;19.50;96337.00;;;;5136377;27;20221;-62
2023/08/13 00:19:44;;;;;;;1.27;1.17;;;;;19.40;96343.00;;;;5136370;27;20219;-62
2023/08/13 00:22:12;;;;;;;8.57;2.37;;;;;19.40;96347.00;;;;5136337;27;20279;-62
2023/08/13 00:24:39;;;;;;;1.47;1.37;;;;;19.40;96338.00;;;;5135671;27;20200;-61
2023/08/13 00:27:08;;;;;;;2.20;1.87;;;;;19.40;96345.00;;;;5135724;27;20213;-61
2023/08/13 00:29:37;;;;;;;1.23;1.23;;;;;19.30;96345.00;;;;5136197;27;20181;-61
2023/08/13 00:32:05;;;;;;;1.00;1.00;;;;;19.40;96344.00;;;;5135660;27;20190;-61
2023/08/13 00:34:33;;;;;;;0.97;0.97;;;;;19.40;96336.00;;;;5135811;27;20724;-62
2023/08/13 00:37:00;;;;;;;1.10;1.00;;;;;19.40;96338.00;;;;5135196;27;20209;-61
2023/08/13 00:39:27;;;;;;;1.13;1.13;;;;;19.30;96340.00;;;;5135768;27;20221;-61
2023/08/13 00:41:55;;;;;;;0.77;0.77;;;;;19.30;96334.00;;;;5135863;27;20197;-61
2023/08/13 00:44:24;;;;;;;1.20;1.20;;;;;19.30;96326.00;;;;5136076;27;20250;-62
2023/08/13 00:46:51;;;;;;;0.93;0.93;;;;;19.20;96337.00;;;;5136139;27;20630;-61
2023/08/13 00:49:19;;;;;;;1.03;1.03;;;;;19.10;96338.00;;;;5137236;27;20200;-63
2023/08/13 00:51:47;;;;;;;1.23;1.23;;;;;19.20;96328.00;;;;5136305;27;20185;-62
2023/08/13 00:54:14;;;;;;;0.93;0.93;;;;;19.20;96330.00;;;;5135742;27;20182;-62
2023/08/13 00:56:42;;;;;;;0.90;0.90;;;;;19.10;96319.00;;;;5135493;27;20304;-62
2023/08/13 00:59:10;;;;;;;1.63;1.53;;;;;19.00;96325.00;;;;5135302;27;20217;-62
2023/08/13 01:01:39;;;;;;;23.13;1.80;;;;;19.10;96329.00;;;;5134099;27;20197;-62
2023/08/13 01:04:07;;;;;;;0.93;0.93;;;;;19.00;96327.00;;;;5135346;27;20201;-62
2023/08/13 01:06:39;;;;;;;1.30;1.23;;;;;19.00;96340.00;;;;5135385;27;20212;-62
2023/08/13 01:09:14;;;;;;;0.70;0.70;;;;;19.10;96335.00;;;;5136069;27;20234;-62
2023/08/13 01:11:52;;;;;;;1.53;1.47;;;;;19.00;96337.00;;;;5136487;27;20273;-62
2023/08/13 01:14:27;;;;;;;1.17;1.10;;;;;19.10;96337.00;;;;5135754;27;20181;-62
2023/08/13 01:16:58;;;;;;;1.00;1.00;;;;;18.90;96333.00;;;;5134912;27;20217;-62
2023/08/13 01:19:25;;;;;;;1.10;1.10;;;;;18.80;96324.00;;;;5135091;27;20246;-62
2023/08/13 01:21:53;;;;;;;0.70;0.70;;;;;18.90;96327.00;;;;5135096;27;20181;-62
2023/08/13 01:24:22;;;;;;;1.00;1.00;;;;;18.80;96333.00;;;;5135360;27;20189;-62
2023/08/13 01:26:56;;;;;;;1.17;1.07;;;;;18.90;96331.00;;;;5135010;27;20205;-62
2023/08/13 01:29:31;;;;;;;1.23;1.03;;;;;18.80;96322.00;;;;5135022;27;20180;-62
2023/08/13 01:32:01;;;;;;;1.00;1.00;;;;;18.80;96317.00;;;;5135018;27;20261;-62
2023/08/13 01:34:29;;;;;;;0.60;0.60;;;;;18.70;96318.00;;;;5134465;27;20177;-62
2023/08/13 01:36:57;;;;;;;0.80;0.80;;;;;18.80;96329.00;;;;5134862;27;20292;-62
2023/08/13 01:39:26;;;;;;;0.80;0.80;;;;;18.80;96340.00;;;;5134556;27;20220;-62
2023/08/13 01:41:55;;;;;;;1.20;1.20;;;;;18.80;96325.00;;;;5135126;27;20193;-62
2023/08/13 01:44:22;;;;;;;0.83;0.83;;;;;18.80;96331.00;;;;5134833;27;20190;-62
2023/08/13 01:46:50;;;;;;;2.07;1.90;;;;;18.70;96332.00;;;;5134462;27;20210;-63
2023/08/13 01:49:19;;;;;;;0.80;0.80;;;;;18.70;96329.00;;;;5134357;27;20196;-62
2023/08/13 01:51:46;;;;;;;1.77;1.67;;;;;18.80;96321.00;;;;5134538;27;20193;-62
2023/08/13 01:54:14;;;;;;;0.90;0.90;;;;;18.70;96327.00;;;;5134468;27;20231;-62
2023/08/13 01:56:43;;;;;;;2.37;2.00;;;;;18.80;96328.00;;;;5134669;27;20285;-62
2023/08/13 01:59:10;;;;;;;0.80;0.80;;;;;18.80;96328.00;;;;5134074;27;20267;-62
2023/08/13 02:01:37;;;;;;;0.83;0.83;;;;;18.80;96330.00;;;;5134267;27;20196;-63
2023/08/13 02:04:06;;;;;;;0.90;0.90;;;;;18.80;96330.00;;;;5133775;27;20201;-62
2023/08/13 02:06:35;;;;;;;0.60;0.60;;;;;18.90;96332.00;;;;5134179;27;20668;-62
2023/08/13 02:09:04;;;;;;;0.87;0.87;;;;;18.90;96324.00;;;;5134094;27;20269;-62
2023/08/13 02:11:31;;;;;;;0.97;0.97;;;;;18.90;96330.00;;;;5134135;27;20190;-62
2023/08/13 02:14:00;;;;;;;1.00;1.00;;;;;19.00;96334.00;;;;5134382;27;20193;-61
2023/08/13 02:16:28;;;;;;;0.80;0.80;;;;;18.90;96329.00;;;;5134238;27;20269;-62
2023/08/13 02:18:55;;;;;;;1.10;1.10;;;;;18.90;96341.00;;;;5134163;27;20205;-62
2023/08/13 02:21:23;;;;;;;1.27;1.23;;;;;18.80;96333.00;;;;5134065;28;20542;-62
2023/08/13 02:23:51;;;;;;;0.87;0.87;;;;;18.70;96329.00;;;;5134043;28;20194;-61
2023/08/13 02:26:18;;;;;;;0.60;0.60;;;;;18.60;96331.00;;;;5134227;28;20205;-61
2023/08/13 02:28:46;;;;;;;0.90;0.90;;;;;18.60;96328.00;;;;5134335;28;20196;-61
2023/08/13 02:31:14;;;;;;;0.80;0.80;;;;;18.50;96331.00;;;;5132766;28;20330;-61
2023/08/13 02:33:42;;;;;;;0.90;0.90;;;;;18.40;96339.00;;;;5134009;28;20193;-61
2023/08/13 02:36:09;;;;;;;1.10;1.10;;;;;18.50;96335.00;;;;5134095;28;20211;-62
2023/08/13 02:38:37;;;;;;;0.80;0.80;;;;;18.50;96332.00;;;;5134253;28;20675;-62
2023/08/13 02:41:04;;;;;;;0.87;0.87;;;;;18.70;96320.00;;;;5133935;28;20228;-62
2023/08/13 02:43:48;;;;;;;0.87;0.87;;;;;18.70;96312.00;;;;5133990;28;20181;-62
2023/08/13 02:46:17;;;;;;;1.20;1.20;;;;;18.70;96303.00;;;;5133946;28;20581;-62
2023/08/13 02:48:45;;;;;;;0.80;0.80;;;;;18.70;96314.00;;;;5133626;28;20526;-62
2023/08/13 02:51:13;;;;;;;0.60;0.60;;;;;18.70;96313.00;;;;5133421;28;20587;-62
2023/08/13 02:53:40;;;;;;;1.03;1.03;;;;;18.60;96310.00;;;;5133850;28;20232;-61
2023/08/13 02:56:08;;;;;;;0.80;0.80;;;;;18.70;96317.00;;;;5133940;28;20209;-61
2023/08/13 02:58:36;;;;;;;0.87;0.87;;;;;18.50;96321.00;;;;5135090;27;20532;-61
2023/08/13 03:01:04;;;;;;;1.43;1.33;;;;;18.40;96303.00;;;;5137870;27;20220;-61
2023/08/13 03:03:33;;;;;;;0.57;0.57;;;;;18.50;96311.00;;;;5137709;27;20221;-62
2023/08/13 03:06:00;;;;;;;1.37;1.27;;;;;18.60;96306.00;;;;5137816;27;20205;-62
2023/08/13 03:08:28;;;;;;;0.80;0.80;;;;;18.50;96306.00;;;;5138395;27;20194;-62
2023/08/13 03:10:55;;;;;;;0.93;0.93;;;;;18.50;96311.00;;;;5138123;27;20272;-62
2023/08/13 03:13:23;;;;;;;1.23;1.03;;;;;18.60;96310.00;;;;5137205;27;20196;-62
2023/08/13 03:15:50;;;;;;;0.77;0.77;;;;;18.70;96311.00;;;;5137843;27;20201;-62
2023/08/13 03:18:17;;;;;;;1.20;1.20;;;;;18.60;96317.00;;;;5137871;27;20238;-61
2023/08/13 03:20:46;;;;;;;1.10;1.10;;;;;18.60;96319.00;;;;5137802;27;20699;-61
2023/08/13 03:23:14;;;;;;;1.17;1.17;;;;;18.50;96308.00;;;;5137584;27;20193;-61
2023/08/13 03:25:41;;;;;;;0.90;0.90;;;;;18.50;96300.00;;;;5137650;27;20197;-61
2023/08/13 03:28:09;;;;;;;0.90;0.90;;;;;18.50;96309.00;;;;5136690;27;20658;-61
2023/08/13 03:30:36;;;;;;;0.77;0.77;;;;;18.50;96293.00;;;;5137298;27;20197;-62
2023/08/13 03:33:03;;;;;;;0.93;0.93;;;;;18.60;96291.00;;;;5136866;27;20189;-62
2023/08/13 03:35:31;;;;;;;0.63;0.63;;;;;18.60;96301.00;;;;5136537;27;20197;-61
2023/08/13 03:38:00;;;;;;;0.93;0.93;;;;;18.60;96300.00;;;;5136670;27;20201;-62
2023/08/13 03:40:27;;;;;;;0.60;0.60;;;;;18.60;96299.00;;;;5136474;27;20221;-61
2023/08/13 03:42:54;;;;;;;0.70;0.70;;;;;18.40;96308.00;;;;5136476;27;20192;-61
2023/08/13 03:45:22;;;;;;;1.07;0.97;;;;;18.40;96289.00;;;;5136504;27;20193;-61
2023/08/13 03:47:49;;;;;;;1.00;1.00;;;;;18.40;96293.00;;;;5136949;27;20209;-61
2023/08/13 03:50:16;;;;;;;1.00;1.00;;;;;18.40;96302.00;;;;5137279;27;20189;-61
2023/08/13 03:52:44;;;;;;;1.40;1.23;;;;;18.40;96302.00;;;;5137411;27;20644;-61
2023/08/13 03:55:13;;;;;;;1.07;1.00;;;;;18.40;96285.00;;;;5136930;27;20220;-61
2023/08/13 03:57:40;;;;;;;0.80;0.80;;;;;18.40;96283.00;;;;5136645;27;20220;-61
2023/08/13 04:00:08;;;;;;;0.80;0.80;;;;;18.40;96287.00;;;;5136948;27;20221;-61
2023/08/13 04:02:39;;;;;;;0.73;0.73;;;;;18.30;96295.00;;;;5137209;27;20193;-61
2023/08/13 04:05:07;;;;;;;0.60;0.60;;;;;18.40;96287.00;;;;5136722;27;20668;-61
2023/08/13 04:07:35;;;;;;;0.70;0.70;;;;;18.40;96286.00;;;;5136210;27;20213;-61
2023/08/13 04:10:02;;;;;;;0.40;0.40;;;;;18.30;96294.00;;;;5135480;27;20292;-62
2023/08/13 04:12:31;;;;;;;1.00;1.00;;;;;18.20;96298.00;;;;5136726;27;20294;-62
2023/08/13 04:14:58;;;;;;;1.03;1.03;;;;;18.10;96296.00;;;;5136418;27;20668;-62
2023/08/13 04:17:26;;;;;;;0.90;0.90;;;;;18.10;96300.00;;;;5136360;27;20209;-62
2023/08/13 04:19:53;;;;;;;0.80;0.80;;;;;18.10;96293.00;;;;5136266;27;20209;-62
2023/08/13 04:22:20;;;;;;;0.60;0.60;;;;;18.10;96295.00;;;;5136415;27;20563;-62
2023/08/13 04:24:50;;;;;;;0.90;0.90;;;;;18.10;96304.00;;;;5136280;27;20196;-63
2023/08/13 04:27:18;;;;;;;0.73;0.73;;;;;18.20;96305.00;;;;5136097;27;20209;-62
2023/08/13 04:29:46;;;;;;;0.87;0.87;;;;;18.30;96309.00;;;;5136588;27;20540;-62
2023/08/13 04:32:14;;;;;;;0.77;0.77;;;;;18.10;96320.00;;;;5136776;27;20190;-62
2023/08/13 04:34:41;;;;;;;0.80;0.80;;;;;17.90;96322.00;;;;5136827;27;20189;-62
2023/08/13 04:37:08;;;;;;;0.80;0.80;;;;;18.00;96316.00;;;;5136397;27;20224;-62
2023/08/13 04:39:36;;;;;;;0.73;0.73;;;;;18.10;96305.00;;;;5136115;27;20288;-62
2023/08/13 04:42:03;;;;;;;1.17;1.00;;;;;18.00;96301.00;;;;5135894;27;20193;-62
2023/08/13 04:44:31;;;;;;;0.50;0.50;;;;;18.10;96299.00;;;;5135784;27;20197;-62
2023/08/13 04:47:00;;;;;;;0.73;0.73;;;;;18.20;96310.00;;;;5135394;27;20324;-62
2023/08/13 04:49:27;;;;;;;0.93;0.77;;;;;18.20;96293.00;;;;5135464;27;20197;-62
2023/08/13 04:51:54;;;;;;;1.20;1.17;;;;;18.20;96296.00;;;;5135426;27;20192;-62
2023/08/13 04:54:22;;;;;;;0.60;0.60;;;;;18.30;96295.00;;;;5135563;27;20194;-62
2023/08/13 04:56:49;;;;;;;1.03;1.03;;;;;18.40;96287.00;;;;5135888;27;20222;-62
2023/08/13 04:59:17;;;;;;;2.10;1.43;;;;;18.40;96301.00;;;;5135442;27;20200;-62
2023/08/13 05:01:44;;;;;;;0.77;0.77;;;;;18.40;96303.00;;;;5135115;27;20213;-62
2023/08/13 05:04:13;;;;;;;1.40;1.03;;;;;18.40;96302.00;;;;5134963;27;20216;-62
2023/08/13 05:06:40;;;;;;;0.57;0.57;;;;;18.40;96308.00;;;;5135464;27;20209;-62
2023/08/13 05:09:07;;;;;;;0.63;0.63;;;;;18.50;96298.00;;;;5135634;27;20189;-62
2023/08/13 05:11:35;;;;;;;0.70;0.70;;;;;18.50;96296.00;;;;5135336;27;20269;-62
2023/08/13 05:14:02;;;;;;;1.73;1.63;;;;;18.50;96289.00;;;;5135330;27;20193;-62
2023/08/13 05:16:30;;;;;;;0.97;0.97;;;;;18.50;96285.00;;;;5135150;27;20217;-62
2023/08/13 05:18:57;;;;;;;1.27;1.27;;;;;18.50;96285.00;;;;5135155;27;20193;-62
2023/08/13 05:21:26;;;;;;;1.67;1.57;;;;;18.70;96292.00;;;;5135056;27;20205;-61
2023/08/13 05:23:53;;;;;;;0.50;0.50;;;;;18.70;96294.00;;;;5134809;27;20631;-61
2023/08/13 05:26:21;;;;;;;0.70;0.63;;;;;18.70;96297.00;;;;5135089;27;20217;-62
2023/08/13 05:28:49;;;;;;;0.70;0.70;;;;;18.70;96306.00;;;;5135758;27;20200;-62
2023/08/13 05:31:16;;;;;;;0.90;0.90;;;;;18.60;96304.00;;;;5134934;27;20192;-62
2023/08/13 05:33:43;;;;;;;1.13;1.03;;;;;18.40;96303.00;;;;5134848;27;20185;-61
2023/08/13 05:36:11;;;;;;;0.60;0.60;;;;;18.30;96303.00;;;;5134816;27;20208;-61
2023/08/13 05:38:40;;;;;;;0.40;0.40;;;;;18.30;96301.00;;;;5135170;27;20196;-61
2023/08/13 05:41:07;;;;;;;0.77;0.77;;;;;18.40;96296.00;;;;5134660;27;20213;-61
2023/08/13 05:43:34;;;;;;;0.73;0.73;;;;;18.50;96308.00;;;;5134676;27;20193;-61
2023/08/13 05:46:02;;;;;;;1.07;1.07;;;;;18.60;96307.00;;;;5134456;27;20687;-62
2023/08/13 05:48:29;;;;;;;0.83;0.83;;;;;18.50;96318.00;;;;5134482;27;20190;-62
2023/08/13 05:50:57;;;;;;;0.70;0.70;;;;;18.50;96317.00;;;;5134443;27;20197;-62
2023/08/13 05:53:24;;;;;;;0.90;0.90;;;;;18.60;96311.00;;;;5135012;27;20193;-62
2023/08/13 05:55:53;;;;;;;0.50;0.50;;;;;18.70;96307.00;;;;5135027;27;20194;-61
2023/08/13 05:58:21;;;;;;;0.77;0.77;;;;;18.80;96311.00;;;;5135070;27;20553;-62
2023/08/13 06:00:48;;;;;;;1.50;1.40;;;;;18.80;96304.00;;;;5134484;27;20224;-62
2023/08/13 06:03:15;;;;;;;1.40;1.37;;;;;18.80;96299.00;;;;5134726;27;20193;-61
2023/08/13 06:05:43;;;;;;;0.60;0.60;;;;;18.80;96299.00;;;;5133707;27;20307;-62
2023/08/13 06:08:10;;;;;;;1.40;0.70;;;;;18.90;96290.00;;;;5133885;27;20268;-62
2023/08/13 06:10:38;;;;;;;1.13;1.13;;;;;18.90;96302.00;;;;5133712;27;20196;-61
2023/08/13 06:13:07;;;;;;;1.30;1.27;;;;;18.60;96302.00;;;;5134228;27;20189;-61
2023/08/13 06:15:34;;;;;;;0.57;0.57;;;;;18.70;96317.00;;;;5133833;27;20213;-61
2023/08/13 06:18:02;;;;;;;1.50;1.47;;;;;18.80;96325.00;;;;5134284;27;20193;-61
2023/08/13 06:20:30;;;;;;;0.70;0.70;;;;;18.70;96311.00;;;;5134201;27;20684;-61
2023/08/13 06:22:58;;;;;;;0.47;0.47;;;;;18.60;96313.00;;;;5134821;27;20203;-61
2023/08/13 06:25:25;;;;;;;1.00;1.00;;;;;18.60;96317.00;;;;5134235;28;20192;-62
2023/08/13 06:27:53;;;;;;;0.80;0.80;;;;;18.50;96320.00;;;;5134279;28;20255;-62
2023/08/13 06:30:21;;;;;;;0.87;0.87;;;;;18.60;96314.00;;;;5134120;28;20186;-62
2023/08/13 06:32:49;;;;;;;1.07;0.70;;;;;18.80;96309.00;;;;5134123;28;20193;-62
2023/08/13 06:35:16;;;;;;;0.80;0.80;;;;;18.80;96311.00;;;;5138440;27;20215;-62
2023/08/13 06:37:45;;;;;;;0.60;0.60;;;;;18.90;96322.00;;;;5138681;27;20223;-62
2023/08/13 06:40:14;;;;;;;0.70;0.70;;;;;18.90;96316.00;;;;5139023;27;20195;-62
2023/08/13 06:42:41;;;;;;;0.60;0.60;;;;;19.10;96310.00;;;;5138574;27;20193;-62
2023/08/13 06:45:10;;;;;;;1.10;1.10;;;;;19.20;96316.00;;;;5138344;27;20648;-62
2023/08/13 06:47:39;;;;;;;0.60;0.60;;;;;19.40;96319.00;;;;5137886;27;20206;-62
2023/08/13 06:50:07;;;;;;;0.80;0.80;;;;;19.50;96320.00;;;;5138261;27;20189;-62
2023/08/13 06:52:35;;;;;;;0.63;0.63;;;;;19.60;96321.00;;;;5137916;27;20621;-62
2023/08/13 06:55:03;;;;;;;0.40;0.40;;;;;19.70;96310.00;;;;5138529;27;20185;-62
2023/08/13 06:57:30;;;;;;;0.73;0.73;;;;;19.80;96309.00;;;;5137909;27;20213;-62
2023/08/13 06:59:58;;;;;;;1.10;1.10;;;;;20.00;96316.00;;;;5137845;27;20679;-62
2023/08/13 07:02:25;;;;;;;1.47;1.37;;;;;20.10;96302.00;;;;5137981;27;20606;-62
2023/08/13 07:04:54;;;;;;;1.13;1.03;;;;;20.10;96318.00;;;;5137585;27;20588;-62
2023/08/13 07:07:21;;;;;;;0.60;0.60;;;;;20.00;96333.00;;;;5137164;27;20212;-62
2023/08/13 07:09:49;;;;;;;0.70;0.70;;;;;20.00;96319.00;;;;5137268;27;20194;-62
2023/08/13 07:12:16;;;;;;;0.77;0.77;;;;;20.00;96314.00;;;;5137824;27;20178;-62
2023/08/13 07:14:44;;;;;;;0.60;0.60;;;;;20.00;96317.00;;;;5138027;27;20345;-62
2023/08/13 07:17:11;;;;;;;0.80;0.80;;;;;20.00;96311.00;;;;5137521;27;20661;-62
2023/08/13 07:19:38;;;;;;;0.80;0.80;;;;;20.10;96313.00;;;;5136234;27;20193;-61
2023/08/13 07:22:07;;;;;;;0.77;0.77;;;;;20.20;96309.00;;;;5137587;27;20218;-61
2023/08/13 07:24:35;;;;;;;4.07;1.33;;;;;20.20;96306.00;;;;5137446;27;20193;-62
2023/08/13 07:27:02;;;;;;;0.93;0.73;;;;;20.30;96306.00;;;;5137408;27;20232;-62
2023/08/13 07:29:29;;;;;;;1.03;1.03;;;;;20.20;96306.00;;;;5136930;27;20554;-62
2023/08/13 07:31:57;;;;;;;0.80;0.80;;;;;20.20;96303.00;;;;5137296;27;20186;-62
2023/08/13 07:34:25;;;;;;;1.02;1.02;;;;;20.20;96310.00;;;;5137205;27;20190;-62
2023/08/13 07:36:52;;;;;;;0.70;0.70;;;;;20.10;96313.00;;;;5137339;27;20213;-62
2023/08/13 07:39:22;;;;;;;0.73;0.73;;;;;20.20;96308.00;;;;5137636;27;20244;-62
2023/08/13 07:41:49;;;;;;;2.20;0.87;;;;;20.30;96319.00;;;;5138113;27;20217;-62
2023/08/13 07:44:17;;;;;;;0.88;0.88;;;;;20.40;96318.00;;;;5138161;27;20185;-63
2023/08/13 07:46:45;;;;;;;0.85;0.85;;;;;20.60;96323.00;;;;5135685;27;20209;-62
2023/08/13 07:49:12;;;;;;;0.83;0.83;;;;;20.50;96317.00;;;;5136707;27;20189;-62
2023/08/13 07:51:39;;;;;;;0.77;0.77;;;;;20.40;96318.00;;;;5136396;27;20185;-63
2023/08/13 07:54:07;;;;;;;0.90;0.90;;;;;20.50;96311.00;;;;5136565;27;20189;-62
2023/08/13 07:56:36;;;;;;;0.88;0.88;;;;;20.50;96310.00;;;;5136838;27;20216;-63
2023/08/13 07:59:04;;;;;;;0.70;0.70;;;;;20.50;96305.00;;;;5136792;27;20193;-61
2023/08/13 08:01:33;;;;;;;1.27;1.20;;;;;20.60;96316.00;;;;5137394;27;20217;-61
2023/08/13 08:04:00;;;;;;;1.30;1.27;;;;;20.60;96315.00;;;;5136442;27;20201;-62
2023/08/13 08:06:28;;;;;;;0.70;0.70;;;;;20.40;96317.00;;;;5136624;27;20228;-62
2023/08/13 08:08:55;;;;;;;1.23;1.17;;;;;20.20;96310.00;;;;5136519;27;20189;-63
2023/08/13 08:11:23;;;;;;;1.00;1.00;;;;;20.20;96307.00;;;;5136438;27;20186;-62
2023/08/13 08:13:52;;;;;;;1.33;1.23;;;;;20.40;96313.00;;;;5135855;27;20548;-61
2023/08/13 08:16:19;;;;;;;2.17;1.50;;;;;20.80;96304.00;;;;5135783;27;20213;-61
2023/08/13 08:18:46;;;;;;;0.80;0.80;;;;;21.00;96291.00;;;;5136231;27;20583;-61
2023/08/13 08:21:14;;;;;;;1.08;1.08;;;;;21.30;96289.00;;;;5136677;27;20262;-62
2023/08/13 08:23:42;;;;;;;0.50;0.50;;;;;21.70;96289.00;;;;5136259;27;20200;-62
2023/08/13 08:26:09;;;;;;;0.80;0.80;;;;;21.90;96297.00;;;;5136061;27;20212;-61
2023/08/13 08:28:36;;;;;;;1.42;0.98;;;;;22.20;96303.00;;;;5136181;27;20593;-61
2023/08/13 08:31:05;;;;;;;0.70;0.70;;;;;22.10;96297.00;;;;5136794;27;20189;-61
2023/08/13 08:33:32;;;;;;;0.90;0.90;;;;;21.90;96306.00;;;;5134743;27;20779;-61
2023/08/13 08:36:00;;;;;;;1.48;1.38;;;;;22.00;96309.00;;;;5136084;27;20205;-62
2023/08/13 08:38:27;;;;;;;1.23;1.23;;;;;21.70;96320.00;;;;5136473;27;20196;-61
2023/08/13 08:40:55;;;;;;;0.43;0.43;;;;;21.40;96320.00;;;;5135923;27;20667;-61
2023/08/13 08:43:25;;;;;;;0.70;0.70;;;;;21.20;96328.00;;;;5135810;27;20632;-61
2023/08/13 08:45:54;;;;;;;0.90;0.90;;;;;21.30;96323.00;;;;5136056;27;20193;-62
2023/08/13 08:48:24;;;;;;;2.75;1.60;;;;;21.30;96321.00;;;;5136206;27;20533;-61
2023/08/13 08:50:51;;;;;;;0.47;0.47;;;;;21.60;96297.00;;;;5135678;27;20656;-62
2023/08/13 08:53:19;;;;;;;0.98;0.98;;;;;21.80;96297.00;;;;5135638;27;20196;-61
2023/08/13 08:55:47;;;;;;;0.52;0.52;;;;;21.90;96308.00;;;;5135598;27;20189;-61
2023/08/13 08:58:15;;;;;;;1.10;1.10;;;;;21.80;96301.00;;;;5135226;27;20522;-60
2023/08/13 09:00:43;;;;;;;1.17;1.17;;;;;22.00;96299.00;;;;5135295;27;20193;-61
2023/08/13 09:03:10;;;;;;;0.50;0.50;;;;;22.30;96299.00;;;;5135466;27;20189;-61
2023/08/13 09:05:40;;;;;;;0.55;0.55;;;;;22.50;96292.00;;;;5135360;27;20201;-61
2023/08/13 09:08:12;;;;;;;0.60;0.60;;;;;22.80;96289.00;;;;5135377;27;20197;-61
2023/08/13 09:10:42;;;;;;;0.88;0.88;;;;;22.70;96289.00;;;;5135696;27;20170;-61
2023/08/13 09:13:10;;;;;;;0.55;0.55;;;;;23.00;96286.00;;;;5136262;27;20177;-61
2023/08/13 09:15:41;;;;;;;0.65;0.65;;;;;23.00;96285.00;;;;5135755;27;20198;-61
2023/08/13 09:18:10;;;;;;;0.80;0.80;;;;;23.00;96286.00;;;;5135345;27;20182;-61
2023/08/13 09:20:44;;;;;;;0.90;0.90;;;;;22.80;96279.00;;;;5135542;27;20682;-61
2023/08/13 09:23:12;;;;;;;1.02;1.02;;;;;22.90;96277.00;;;;5134984;27;20660;-61
2023/08/13 09:25:39;;;;;;;0.77;0.77;;;;;22.90;96265.00;;;;5135172;27;20188;-61
2023/08/13 09:28:07;;;;;;;1.23;1.15;;;;;23.10;96275.00;;;;5134937;27;20652;-60
2023/08/13 09:30:34;;;;;;;0.60;0.60;;;;;23.40;96267.00;;;;5134917;27;20553;-61
2023/08/13 09:33:03;;;;;;;0.60;0.60;;;;;23.50;96262.00;;;;5134753;27;20189;-61
2023/08/13 09:35:30;;;;;;;0.45;0.45;;;;;23.40;96249.00;;;;5134640;27;20193;-61
2023/08/13 09:37:59;;;;;;;0.70;0.70;;;;;23.30;96267.00;;;;5133328;27;20225;-61
2023/08/13 09:40:27;;;;;;;1.35;1.25;;;;;23.50;96254.00;;;;5134752;27;20234;-61
2023/08/13 09:42:56;;;;;;;0.73;0.73;;;;;23.80;96262.00;;;;5135119;27;20235;-62
2023/08/13 09:45:27;;;;;;;0.70;0.70;;;;;24.10;96260.00;;;;5135068;27;20532;-62
2023/08/13 09:47:56;;;;;;;0.90;0.90;;;;;24.00;96249.00;;;;5134602;27;20217;-62
2023/08/13 09:50:26;;;;;;;0.75;0.75;;;;;23.90;96240.00;;;;5134739;27;20185;-61
2023/08/13 09:52:54;;;;;;;0.60;0.60;;;;;24.00;96219.00;;;;5134641;27;20189;-61
2023/08/13 09:55:29;;;;;;;0.70;0.70;;;;;24.10;96234.00;;;;5134517;27;20200;-62
2023/08/13 09:58:00;;;;;;;0.95;0.95;;;;;23.90;96237.00;;;;5134419;27;20278;-61
2023/08/13 10:00:28;;;;;;;0.88;0.88;;;;;23.80;96246.00;;;;5134304;27;20185;-61
2023/08/13 10:02:56;;;;;;;0.98;0.98;;;;;24.10;96246.00;;;;5134363;27;20228;-62
2023/08/13 10:05:24;;;;;;;0.63;0.63;;;;;24.20;96244.00;;;;5134394;27;20196;-62
2023/08/13 10:07:51;;;;;;;0.75;0.75;;;;;24.50;96244.00;;;;5134012;27;20254;-62
2023/08/13 10:10:20;;;;;;;0.70;0.70;;;;;24.80;96235.00;;;;5133899;27;20192;-62
2023/08/13 10:12:49;;;;;;;0.77;0.77;;;;;25.20;96232.00;;;;5134511;27;20519;-62
2023/08/13 10:15:17;;;;;;;0.80;0.80;;;;;25.20;96238.00;;;;5134255;27;20204;-62
2023/08/13 10:17:45;;;;;;;0.75;0.75;;;;;25.20;96243.00;;;;5134042;27;20216;-62
2023/08/13 10:20:12;;;;;;;1.00;1.00;;;;;24.80;96243.00;;;;5134681;27;20197;-61
2023/08/13 10:22:41;;;;;;;3.05;1.23;;;;;24.70;96249.00;;;;5134078;27;20647;-62
2023/08/13 10:25:10;;;;;;;0.80;0.80;;;;;24.50;96250.00;;;;5134467;27;20194;-62
2023/08/13 10:27:39;;;;;;;0.95;0.95;;;;;24.20;96250.00;;;;5134145;28;20209;-62
2023/08/13 10:30:11;;;;;;;0.77;0.77;;;;;24.10;96245.00;;;;5134039;28;20204;-62
2023/08/13 10:32:48;;;;;;;0.75;0.75;;;;;24.10;96247.00;;;;5134287;28;20174;-62
2023/08/13 10:35:23;;;;;;;2.15;1.08;;;;;23.90;96252.00;;;;5134074;28;20195;-62
2023/08/13 10:37:53;;;;;;;2.10;0.90;;;;;23.80;96254.00;;;;5134079;28;20215;-62
2023/08/13 10:40:21;;;;;;;2.78;1.10;;;;;23.70;96254.00;;;;5134467;28;20194;-62
2023/08/13 10:42:50;;;;;;;0.68;0.68;;;;;23.80;96254.00;;;;5134034;28;20245;-62
2023/08/13 10:45:20;;;;;;;3.15;1.83;;;;;24.20;96232.00;;;;5134423;28;20200;-62
2023/08/13 10:47:51;;;;;;;0.77;0.77;;;;;24.70;96233.00;;;;5134057;28;20213;-62
2023/08/13 10:50:26;;;;;;;0.70;0.70;;;;;25.30;96218.00;;;;5133770;28;20177;-61
2023/08/13 10:52:54;;;;;;;0.75;0.75;;;;;25.90;96230.00;;;;5134227;28;20230;-61
2023/08/13 10:55:24;;;;;;;1.00;1.00;;;;;26.00;96230.00;;;;5134071;28;20197;-61
2023/08/13 10:57:52;;;;;;;0.80;0.80;;;;;26.30;96229.00;;;;5132681;28;20786;-61
2023/08/13 11:00:24;;;;;;;1.17;1.10;;;;;26.60;96217.00;;;;5134073;28;20268;-61
2023/08/13 11:02:58;;;;;;;0.93;0.77;;;;;27.10;96220.00;;;;5134261;28;20201;-61
2023/08/13 11:05:26;;;;;;;0.60;0.60;;;;;27.10;96220.00;;;;5133539;28;20189;-62
2023/08/13 11:07:54;;;;;;;1.58;1.42;;;;;27.20;96240.00;;;;5133565;28;20213;-62
2023/08/13 11:10:22;;;;;;;0.70;0.70;;;;;27.30;96220.00;;;;5133908;28;20208;-61
2023/08/13 11:12:50;;;;;;;1.08;1.08;;;;;27.60;96240.00;;;;5133816;28;20713;-61
2023/08/13 11:15:18;;;;;;;0.80;0.80;;;;;27.00;96246.00;;;;5133837;28;20189;-61
2023/08/13 11:17:49;;;;;;;0.80;0.80;;;;;26.80;96239.00;;;;5133717;28;20218;-61
2023/08/13 11:20:18;;;;;;;1.10;1.10;;;;;27.30;96237.00;;;;5135749;27;20173;-61
2023/08/13 11:22:46;;;;;;;0.70;0.70;;;;;27.70;96221.00;;;;5137357;27;20205;-61
2023/08/13 11:25:15;;;;;;;0.85;0.85;;;;;27.10;96249.00;;;;5137403;27;20189;-61
2023/08/13 11:27:42;;;;;;;3.80;1.60;;;;;27.10;96249.00;;;;5137537;27;20205;-62
2023/08/13 11:30:11;;;;;;;0.88;0.88;;;;;26.50;96244.00;;;;5137499;27;20186;-62
2023/08/13 11:32:38;;;;;;;1.13;1.02;;;;;26.70;96239.00;;;;5137557;27;20185;-62
2023/08/13 11:35:09;;;;;;;0.80;0.80;;;;;27.10;96231.00;;;;5137286;27;20196;-62
2023/08/13 11:37:37;;;;;;;0.80;0.80;;;;;27.90;96230.00;;;;5137504;27;20213;-62
2023/08/13 11:40:06;;;;;;;1.00;1.00;;;;;28.40;96211.00;;;;5137400;27;20217;-62
2023/08/13 11:42:33;;;;;;;0.90;0.90;;;;;28.30;96235.00;;;;5137469;27;20629;-61
2023/08/13 11:45:03;;;;;;;1.08;1.08;;;;;28.10;96242.00;;;;5137083;27;20192;-62
2023/08/13 11:47:30;;;;;;;0.93;0.93;;;;;27.00;96237.00;;;;5136975;27;20216;-62
2023/08/13 11:49:59;;;;;;;0.70;0.70;;;;;26.70;96241.00;;;;5136940;27;20189;-62
2023/08/13 11:52:27;;;;;;;0.60;0.60;;;;;26.60;96228.00;;;;5137040;27;20557;-62
2023/08/13 11:54:57;;;;;;;0.45;0.45;;;;;26.60;96209.00;;;;5136774;27;20185;-62
2023/08/13 11:57:24;;;;;;;0.70;0.70;;;;;26.90;96216.00;;;;5136811;27;20304;-62
2023/08/13 11:59:52;;;;;;;0.63;0.63;;;;;27.30;96214.00;;;;5135382;27;20196;-62
2023/08/13 12:02:21;;;;;;;0.68;0.68;;;;;27.70;96203.00;;;;5136713;27;20240;-62
2023/08/13 12:04:49;;;;;;;0.50;0.50;;;;;28.20;96206.00;;;;5136434;27;20627;-62
2023/08/13 12:07:17;;;;;;;0.88;0.88;;;;;28.60;96204.00;;;;5135149;27;20220;-61
2023/08/13 12:09:46;;;;;;;0.75;0.75;;;;;28.00;96203.00;;;;5136565;27;20193;-62
2023/08/13 12:12:13;;;;;;;5.03;0.80;;;;;27.90;96207.00;;;;5136461;27;20217;-62
2023/08/13 12:14:45;;;;;;;1.10;1.10;;;;;27.60;96204.00;;;;5136661;27;20191;-63
2023/08/13 12:17:13;;;;;;;0.70;0.70;;;;;28.40;96204.00;;;;5136279;27;20217;-62
2023/08/13 12:19:40;;;;;;;1.10;1.10;;;;;28.50;96194.00;;;;5136295;27;20648;-63
2023/08/13 12:22:08;;;;;;;0.63;0.63;;;;;28.70;96180.00;;;;5136164;27;20197;-63